METAR Data
IDs: Format: Raw Decoded Include TAF

Data at: 1400 UTC 10 Jul 2020

VQPR 101100Z 14008KT 8000 VCRA FEW010 FEW015CB SCT030 BKN070 22/14 Q1011 RMK VCRA/S
No TAF found for VQPR